sensor_id;sensor_type;location;lat;lon;timestamp;pressure;altitude;pressure_sealevel;temperature;humidity
58769;BME280;44536;47.474;19.056;2022-09-28T00:01:07;99185.06;;;10.68;77.50
58769;BME280;44536;47.474;19.056;2022-09-28T00:04:10;99187.91;;;10.57;80.46
58769;BME280;44536;47.474;19.056;2022-09-28T00:07:12;99186.31;;;10.37;82.91
58769;BME280;44536;47.474;19.056;2022-09-28T00:10:15;99182.56;;;10.30;82.67
58769;BME280;44536;47.474;19.056;2022-09-28T00:13:17;99187.03;;;10.19;83.56
58769;BME280;44536;47.474;19.056;2022-09-28T00:16:20;99167.94;;;10.06;84.21
58769;BME280;44536;47.474;19.056;2022-09-28T00:19:23;99155.53;;;10.07;84.54
58769;BME280;44536;47.474;19.056;2022-09-28T00:22:25;99155.53;;;10.26;80.23
58769;BME280;44536;47.474;19.056;2022-09-28T00:25:28;99157.75;;;10.21;82.44
58769;BME280;44536;47.474;19.056;2022-09-28T00:28:31;99159.97;;;10.25;81.74
58769;BME280;44536;47.474;19.056;2022-09-28T00:31:34;99156.47;;;10.35;78.31
58769;BME280;44536;47.474;19.056;2022-09-28T00:34:37;99164.66;;;10.41;77.83
58769;BME280;44536;47.474;19.056;2022-09-28T00:37:42;99160.44;;;10.48;78.36
58769;BME280;44536;47.474;19.056;2022-09-28T00:40:45;99163.78;;;10.50;77.48
58769;BME280;44536;47.474;19.056;2022-09-28T00:43:47;99173.38;;;10.61;74.92
58769;BME280;44536;47.474;19.056;2022-09-28T00:46:54;99168.28;;;10.77;73.49
58769;BME280;44536;47.474;19.056;2022-09-28T00:53:10;99174.09;;;10.53;78.27
58769;BME280;44536;47.474;19.056;2022-09-28T00:56:16;99168.28;;;10.77;75.83
58769;BME280;44536;47.474;19.056;2022-09-28T00:59:20;99164.06;;;10.84;73.07
58769;BME280;44536;47.474;19.056;2022-09-28T01:02:25;99176.69;;;10.73;75.96
58769;BME280;44536;47.474;19.056;2022-09-28T01:05:27;99172.97;;;10.56;79.43
58769;BME280;44536;47.474;19.056;2022-09-28T01:08:30;99169.19;;;10.58;75.53
58769;BME280;44536;47.474;19.056;2022-09-28T01:11:34;99170.13;;;10.67;74.83
58769;BME280;44536;47.474;19.056;2022-09-28T01:14:37;99178.37;;;10.64;76.64
58769;BME280;44536;47.474;19.056;2022-09-28T01:17:48;99192.69;;;10.44;79.77
58769;BME280;44536;47.474;19.056;2022-09-28T01:20:59;99180.31;;;10.35;80.23
58769;BME280;44536;47.474;19.056;2022-09-28T01:27:27;99188.06;;;10.46;79.80
58769;BME280;44536;47.474;19.056;2022-09-28T01:30:32;99178.13;;;10.20;83.05
58769;BME280;44536;47.474;19.056;2022-09-28T01:33:39;99190.66;;;10.09;82.57
58769;BME280;44536;47.474;19.056;2022-09-28T01:36:45;99193.84;;;10.12;83.23
58769;BME280;44536;47.474;19.056;2022-09-28T01:39:50;99204.44;;;10.12;83.74
58769;BME280;44536;47.474;19.056;2022-09-28T01:42:54;99196.78;;;10.09;85.10
58769;BME280;44536;47.474;19.056;2022-09-28T01:46:04;99196.38;;;10.04;81.29
58769;BME280;44536;47.474;19.056;2022-09-28T01:49:22;99199.59;;;9.98;82.67
58769;BME280;44536;47.474;19.056;2022-09-28T01:52:31;99209.75;;;9.93;83.75
58769;BME280;44536;47.474;19.056;2022-09-28T01:55:37;99214.50;;;9.89;83.51
58769;BME280;44536;47.474;19.056;2022-09-28T01:58:48;99212.84;;;9.79;83.47
58769;BME280;44536;47.474;19.056;2022-09-28T02:02:09;99215.22;;;9.72;83.76
58769;BME280;44536;47.474;19.056;2022-09-28T02:05:17;99208.25;;;9.71;84.69
58769;BME280;44536;47.474;19.056;2022-09-28T02:08:22;99210.06;;;9.80;87.09
58769;BME280;44536;47.474;19.056;2022-09-28T02:11:28;99201.84;;;9.64;86.03
58769;BME280;44536;47.474;19.056;2022-09-28T02:14:30;99209.50;;;9.77;83.41
58769;BME280;44536;47.474;19.056;2022-09-28T02:17:35;99200.72;;;9.76;86.26
58769;BME280;44536;47.474;19.056;2022-09-28T02:20:37;99202.41;;;9.77;87.00
58769;BME280;44536;47.474;19.056;2022-09-28T02:23:42;99198.50;;;9.72;85.00
58769;BME280;44536;47.474;19.056;2022-09-28T02:26:48;99204.91;;;9.79;85.79
58769;BME280;44536;47.474;19.056;2022-09-28T02:29:51;99212.81;;;9.88;84.07
58769;BME280;44536;47.474;19.056;2022-09-28T02:32:55;99216.87;;;10.02;83.64
58769;BME280;44536;47.474;19.056;2022-09-28T02:35:58;99211.19;;;9.78;87.17
58769;BME280;44536;47.474;19.056;2022-09-28T02:39:02;99211.31;;;9.67;86.57
58769;BME280;44536;47.474;19.056;2022-09-28T02:42:06;99218.69;;;9.63;88.20
58769;BME280;44536;47.474;19.056;2022-09-28T02:45:21;99217.31;;;9.69;87.38
58769;BME280;44536;47.474;19.056;2022-09-28T02:48:41;99216.47;;;9.68;88.58
58769;BME280;44536;47.474;19.056;2022-09-28T03:01:52;99220.06;;;9.48;88.05
58769;BME280;44536;47.474;19.056;2022-09-28T03:08:06;99237.63;;;9.49;89.05
58769;BME280;44536;47.474;19.056;2022-09-28T03:11:14;99240.97;;;9.51;86.32
58769;BME280;44536;47.474;19.056;2022-09-28T03:14:20;99244.63;;;9.69;86.48
58769;BME280;44536;47.474;19.056;2022-09-28T03:17:23;99252.56;;;9.69;85.33
58769;BME280;44536;47.474;19.056;2022-09-28T03:20:25;99240.44;;;9.67;85.67
58769;BME280;44536;47.474;19.056;2022-09-28T03:23:28;99243.22;;;9.65;87.39
58769;BME280;44536;47.474;19.056;2022-09-28T03:26:30;99257.13;;;9.57;88.61
58769;BME280;44536;47.474;19.056;2022-09-28T03:29:33;99260.75;;;9.56;89.65
58769;BME280;44536;47.474;19.056;2022-09-28T03:32:36;99252.66;;;9.48;90.25
58769;BME280;44536;47.474;19.056;2022-09-28T03:35:38;99241.94;;;9.50;89.79
58769;BME280;44536;47.474;19.056;2022-09-28T03:38:40;99246.37;;;9.49;87.64
58769;BME280;44536;47.474;19.056;2022-09-28T03:41:44;99253.22;;;9.52;89.29
58769;BME280;44536;47.474;19.056;2022-09-28T03:44:46;99250.56;;;9.52;87.25
58769;BME280;44536;47.474;19.056;2022-09-28T03:47:48;99244.88;;;9.56;87.57
58769;BME280;44536;47.474;19.056;2022-09-28T03:50:53;99237.91;;;9.55;88.84
58769;BME280;44536;47.474;19.056;2022-09-28T03:53:57;99244.16;;;9.54;88.75
58769;BME280;44536;47.474;19.056;2022-09-28T03:56:59;99259.22;;;9.63;86.05
58769;BME280;44536;47.474;19.056;2022-09-28T04:00:03;99251.84;;;9.57;87.78
58769;BME280;44536;47.474;19.056;2022-09-28T04:03:14;99248.78;;;9.72;85.68
58769;BME280;44536;47.474;19.056;2022-09-28T04:06:16;99250.44;;;9.63;86.33
58769;BME280;44536;47.474;19.056;2022-09-28T04:09:18;99252.25;;;9.62;87.07
58769;BME280;44536;47.474;19.056;2022-09-28T04:12:20;99243.19;;;9.55;86.92
58769;BME280;44536;47.474;19.056;2022-09-28T04:15:23;99242.09;;;9.58;86.63
58769;BME280;44536;47.474;19.056;2022-09-28T04:18:25;99238.03;;;9.54;86.30
58769;BME280;44536;47.474;19.056;2022-09-28T04:21:29;99242.34;;;9.45;87.48
58769;BME280;44536;47.474;19.056;2022-09-28T04:24:31;99253.63;;;9.47;87.41
58769;BME280;44536;47.474;19.056;2022-09-28T04:27:34;99251.94;;;9.37;88.32
58769;BME280;44536;47.474;19.056;2022-09-28T04:30:55;99250.97;;;9.47;87.90
58769;BME280;44536;47.474;19.056;2022-09-28T04:33:57;99246.81;;;9.35;88.55
58769;BME280;44536;47.474;19.056;2022-09-28T04:36:59;99243.31;;;9.35;87.43
58769;BME280;44536;47.474;19.056;2022-09-28T04:40:02;99242.19;;;9.37;86.79
58769;BME280;44536;47.474;19.056;2022-09-28T04:43:05;99246.91;;;9.24;87.51
58769;BME280;44536;47.474;19.056;2022-09-28T04:46:08;99251.47;;;9.12;88.12
58769;BME280;44536;47.474;19.056;2022-09-28T04:49:11;99255.34;;;9.08;88.42
58769;BME280;44536;47.474;19.056;2022-09-28T04:52:13;99246.31;;;9.11;86.35
58769;BME280;44536;47.474;19.056;2022-09-28T04:55:21;99229.53;;;9.50;80.98
58769;BME280;44536;47.474;19.056;2022-09-28T04:58:23;99236.81;;;9.68;79.88
58769;BME280;44536;47.474;19.056;2022-09-28T05:01:25;99230.81;;;9.75;79.72
58769;BME280;44536;47.474;19.056;2022-09-28T05:04:28;99233.31;;;9.57;80.94
58769;BME280;44536;47.474;19.056;2022-09-28T05:07:32;99240.97;;;9.51;81.84
58769;BME280;44536;47.474;19.056;2022-09-28T05:10:35;99250.84;;;9.49;83.55
58769;BME280;44536;47.474;19.056;2022-09-28T05:13:43;99251.25;;;9.35;84.81
58769;BME280;44536;47.474;19.056;2022-09-28T05:16:47;99258.31;;;9.24;84.74
58769;BME280;44536;47.474;19.056;2022-09-28T05:19:51;99259.13;;;9.15;87.18
58769;BME280;44536;47.474;19.056;2022-09-28T05:22:53;99250.47;;;9.04;87.45
58769;BME280;44536;47.474;19.056;2022-09-28T05:25:59;99252.41;;;9.02;87.74
58769;BME280;44536;47.474;19.056;2022-09-28T05:29:02;99249.28;;;9.27;81.77
58769;BME280;44536;47.474;19.056;2022-09-28T05:32:06;99255.94;;;9.21;83.89
58769;BME280;44536;47.474;19.056;2022-09-28T05:35:09;99256.13;;;9.29;85.64
58769;BME280;44536;47.474;19.056;2022-09-28T05:38:12;99263.06;;;10.75;78.43
58769;BME280;44536;47.474;19.056;2022-09-28T05:41:14;99268.25;;;13.58;67.44
58769;BME280;44536;47.474;19.056;2022-09-28T05:44:16;99261.09;;;16.20;56.10
58769;BME280;44536;47.474;19.056;2022-09-28T05:47:18;99263.66;;;20.06;44.23
58769;BME280;44536;47.474;19.056;2022-09-28T05:50:21;99251.44;;;23.04;36.40
58769;BME280;44536;47.474;19.056;2022-09-28T05:53:23;99255.75;;;24.73;32.13
58769;BME280;44536;47.474;19.056;2022-09-28T05:56:25;99248.19;;;26.31;29.96
58769;BME280;44536;47.474;19.056;2022-09-28T05:59:30;99248.88;;;28.61;26.72
58769;BME280;44536;47.474;19.056;2022-09-28T06:02:32;99244.97;;;29.99;23.47
58769;BME280;44536;47.474;19.056;2022-09-28T06:05:35;99242.12;;;27.34;26.46
58769;BME280;44536;47.474;19.056;2022-09-28T06:08:38;99243.56;;;26.31;28.39
58769;BME280;44536;47.474;19.056;2022-09-28T06:11:44;99245.50;;;24.52;30.08
58769;BME280;44536;47.474;19.056;2022-09-28T06:14:48;99235.47;;;22.53;34.21
58769;BME280;44536;47.474;19.056;2022-09-28T06:17:57;99244.66;;;20.73;37.49
58769;BME280;44536;47.474;19.056;2022-09-28T06:21:00;99240.69;;;19.42;41.13
58769;BME280;44536;47.474;19.056;2022-09-28T06:24:04;99239.22;;;18.43;44.13
58769;BME280;44536;47.474;19.056;2022-09-28T06:27:06;99241.03;;;17.72;46.00
58769;BME280;44536;47.474;19.056;2022-09-28T06:30:08;99238.78;;;16.51;49.54
58769;BME280;44536;47.474;19.056;2022-09-28T06:33:13;99244.53;;;15.79;52.61
58769;BME280;44536;47.474;19.056;2022-09-28T06:36:16;99239.16;;;15.17;56.51
58769;BME280;44536;47.474;19.056;2022-09-28T06:39:18;99246.78;;;14.89;56.79
58769;BME280;44536;47.474;19.056;2022-09-28T06:42:21;99251.44;;;14.96;56.45
58769;BME280;44536;47.474;19.056;2022-09-28T06:45:30;99255.69;;;14.57;55.77
58769;BME280;44536;47.474;19.056;2022-09-28T06:48:34;99255.69;;;14.25;56.45
58769;BME280;44536;47.474;19.056;2022-09-28T06:51:37;99253.34;;;14.14;57.61
58769;BME280;44536;47.474;19.056;2022-09-28T06:54:40;99263.81;;;13.83;59.40
58769;BME280;44536;47.474;19.056;2022-09-28T06:57:42;99264.84;;;13.90;58.31
58769;BME280;44536;47.474;19.056;2022-09-28T07:00:45;99265.50;;;14.24;58.53
58769;BME280;44536;47.474;19.056;2022-09-28T07:03:48;99266.84;;;14.04;59.29
58769;BME280;44536;47.474;19.056;2022-09-28T07:06:56;99267.41;;;13.57;60.70
58769;BME280;44536;47.474;19.056;2022-09-28T07:10:01;99265.91;;;13.47;60.93
58769;BME280;44536;47.474;19.056;2022-09-28T07:13:05;99260.53;;;13.31;61.42
58769;BME280;44536;47.474;19.056;2022-09-28T07:16:12;99258.97;;;13.20;62.02
58769;BME280;44536;47.474;19.056;2022-09-28T07:19:14;99259.59;;;13.14;62.95
58769;BME280;44536;47.474;19.056;2022-09-28T07:22:18;99266.47;;;12.90;62.84
58769;BME280;44536;47.474;19.056;2022-09-28T07:25:32;99262.34;;;12.96;63.31
58769;BME280;44536;47.474;19.056;2022-09-28T07:28:37;99261.53;;;12.96;61.89
58769;BME280;44536;47.474;19.056;2022-09-28T07:31:42;99248.38;;;13.02;62.10
58769;BME280;44536;47.474;19.056;2022-09-28T07:34:45;99252.00;;;13.19;63.81
58769;BME280;44536;47.474;19.056;2022-09-28T07:38:03;99252.81;;;13.19;61.65
58769;BME280;44536;47.474;19.056;2022-09-28T07:41:06;99251.66;;;13.22;61.99
58769;BME280;44536;47.474;19.056;2022-09-28T07:44:16;99254.22;;;13.32;62.57
58769;BME280;44536;47.474;19.056;2022-09-28T07:47:20;99244.94;;;13.52;62.86
58769;BME280;44536;47.474;19.056;2022-09-28T07:50:41;99247.78;;;13.58;63.24
58769;BME280;44536;47.474;19.056;2022-09-28T07:53:44;99244.94;;;13.52;63.22
58769;BME280;44536;47.474;19.056;2022-09-28T07:56:48;99253.81;;;13.69;62.77
58769;BME280;44536;47.474;19.056;2022-09-28T07:59:50;99246.19;;;13.98;63.58
58769;BME280;44536;47.474;19.056;2022-09-28T08:02:57;99256.16;;;14.04;62.80
58769;BME280;44536;47.474;19.056;2022-09-28T08:06:02;99262.34;;;14.05;64.02
58769;BME280;44536;47.474;19.056;2022-09-28T08:09:04;99266.66;;;14.06;62.86
58769;BME280;44536;47.474;19.056;2022-09-28T08:12:20;99257.84;;;14.13;63.39
58769;BME280;44536;47.474;19.056;2022-09-28T08:15:23;99260.84;;;14.27;63.38
58769;BME280;44536;47.474;19.056;2022-09-28T08:18:25;99253.16;;;14.64;63.29
58769;BME280;44536;47.474;19.056;2022-09-28T08:21:27;99231.31;;;14.69;63.62
58769;BME280;44536;47.474;19.056;2022-09-28T08:24:48;99223.28;;;14.77;62.68
58769;BME280;44536;47.474;19.056;2022-09-28T08:27:50;99224.81;;;14.71;65.36
58769;BME280;44536;47.474;19.056;2022-09-28T08:30:53;99224.66;;;14.65;64.44
58769;BME280;44536;47.474;19.056;2022-09-28T08:33:57;99220.97;;;14.66;64.71
58769;BME280;44536;47.474;19.056;2022-09-28T08:37:01;99221.47;;;14.77;64.75
58769;BME280;44536;47.474;19.056;2022-09-28T08:40:04;99215.47;;;14.75;64.36
58769;BME280;44536;47.474;19.056;2022-09-28T08:43:14;99223.63;;;14.82;65.14
58769;BME280;44536;47.474;19.056;2022-09-28T08:46:28;99237.09;;;14.88;63.60
58769;BME280;44536;47.474;19.056;2022-09-28T08:49:34;99239.00;;;15.11;62.99
58769;BME280;44536;47.474;19.056;2022-09-28T08:52:38;99240.91;;;15.41;61.79
58769;BME280;44536;47.474;19.056;2022-09-28T08:55:41;99245.41;;;15.41;60.32
58769;BME280;44536;47.474;19.056;2022-09-28T08:58:44;99240.69;;;15.51;61.28
58769;BME280;44536;47.474;19.056;2022-09-28T09:01:55;99241.72;;;15.42;61.56
58769;BME280;44536;47.474;19.056;2022-09-28T09:05:00;99236.34;;;15.50;61.29
58769;BME280;44536;47.474;19.056;2022-09-28T09:14:15;99229.81;;;15.52;63.49
58769;BME280;44536;47.474;19.056;2022-09-28T09:23:55;99226.66;;;15.80;62.03
58769;BME280;44536;47.474;19.056;2022-09-28T09:27:04;99225.28;;;15.84;61.61
58769;BME280;44536;47.474;19.056;2022-09-28T09:30:07;99221.59;;;15.85;60.18
58769;BME280;44536;47.474;19.056;2022-09-28T09:33:20;99224.03;;;15.95;62.37
58769;BME280;44536;47.474;19.056;2022-09-28T09:36:43;99216.53;;;16.13;61.07
58769;BME280;44536;47.474;19.056;2022-09-28T09:46:16;99212.28;;;16.41;58.47
58769;BME280;44536;47.474;19.056;2022-09-28T09:49:35;99221.63;;;16.60;61.56
58769;BME280;44536;47.474;19.056;2022-09-28T09:55:46;99219.16;;;16.73;56.81
58769;BME280;44536;47.474;19.056;2022-09-28T09:58:55;99223.87;;;17.01;57.72
58769;BME280;44536;47.474;19.056;2022-09-28T10:05:25;99222.06;;;17.37;56.49
58769;BME280;44536;47.474;19.056;2022-09-28T10:08:31;99211.59;;;17.57;53.93
58769;BME280;44536;47.474;19.056;2022-09-28T10:11:36;99221.53;;;17.99;53.82
58769;BME280;44536;47.474;19.056;2022-09-28T10:14:40;99220.44;;;17.94;54.81
58769;BME280;44536;47.474;19.056;2022-09-28T10:17:47;99218.91;;;17.48;54.91
58769;BME280;44536;47.474;19.056;2022-09-28T10:20:56;99227.25;;;17.39;56.45
58769;BME280;44536;47.474;19.056;2022-09-28T10:24:01;99220.78;;;17.33;57.73
58769;BME280;44536;47.474;19.056;2022-09-28T10:27:05;99227.44;;;17.73;54.93
58769;BME280;44536;47.474;19.056;2022-09-28T10:36:46;99219.88;;;18.26;53.19
58769;BME280;44536;47.474;19.056;2022-09-28T10:39:54;99216.59;;;18.52;51.26
58769;BME280;44536;47.474;19.056;2022-09-28T10:42:59;99219.72;;;18.56;52.33
58769;BME280;44536;47.474;19.056;2022-09-28T10:49:12;99218.81;;;18.20;51.55
58769;BME280;44536;47.474;19.056;2022-09-28T10:52:38;99228.09;;;18.18;53.63
58769;BME280;44536;47.474;19.056;2022-09-28T10:55:39;99226.47;;;18.24;53.00
58769;BME280;44536;47.474;19.056;2022-09-28T10:58:41;99219.69;;;18.28;51.50
58769;BME280;44536;47.474;19.056;2022-09-28T11:01:44;99201.34;;;17.82;53.00
58769;BME280;44536;47.474;19.056;2022-09-28T11:04:51;99208.97;;;17.28;54.68
58769;BME280;44536;47.474;19.056;2022-09-28T11:07:55;99201.44;;;17.02;56.14
58769;BME280;44536;47.474;19.056;2022-09-28T11:14:05;99201.47;;;18.16;53.76
58769;BME280;44536;47.474;19.056;2022-09-28T11:17:37;99198.16;;;19.53;50.13
58769;BME280;44536;47.474;19.056;2022-09-28T11:20:41;99191.75;;;19.06;50.79
58769;BME280;44536;47.474;19.056;2022-09-28T11:23:56;99191.59;;;18.79;51.88
58769;BME280;44536;47.474;19.056;2022-09-28T11:27:11;99195.34;;;20.20;49.76
58769;BME280;44536;47.474;19.056;2022-09-28T11:30:21;99189.53;;;20.69;48.12
58769;BME280;44536;47.474;19.056;2022-09-28T11:33:29;99187.69;;;23.45;41.23
58769;BME280;44536;47.474;19.056;2022-09-28T11:36:46;99185.19;;;25.60;35.64
58769;BME280;44536;47.474;19.056;2022-09-28T11:39:57;99187.59;;;27.08;33.04
58769;BME280;44536;47.474;19.056;2022-09-28T11:43:06;99184.97;;;26.24;33.29
58769;BME280;44536;47.474;19.056;2022-09-28T11:46:21;99184.56;;;25.42;35.28
58769;BME280;44536;47.474;19.056;2022-09-28T11:49:43;99190.06;;;23.71;38.64
58769;BME280;44536;47.474;19.056;2022-09-28T11:52:51;99181.88;;;22.50;40.99
58769;BME280;44536;47.474;19.056;2022-09-28T12:02:18;99178.41;;;24.24;37.33
58769;BME280;44536;47.474;19.056;2022-09-28T12:05:24;99164.66;;;24.72;37.44
58769;BME280;44536;47.474;19.056;2022-09-28T12:08:34;99161.59;;;26.06;35.75
58769;BME280;44536;47.474;19.056;2022-09-28T12:11:39;99157.31;;;25.93;35.48
58769;BME280;44536;47.474;19.056;2022-09-28T12:14:46;99141.59;;;27.77;32.21
58769;BME280;44536;47.474;19.056;2022-09-28T12:20:53;99132.78;;;26.38;33.11
58769;BME280;44536;47.474;19.056;2022-09-28T12:24:11;99140.69;;;27.44;31.34
58769;BME280;44536;47.474;19.056;2022-09-28T12:30:48;99136.25;;;26.34;32.78
58769;BME280;44536;47.474;19.056;2022-09-28T12:33:50;99129.94;;;26.89;34.21
58769;BME280;44536;47.474;19.056;2022-09-28T12:49:25;99103.38;;;25.12;34.81
58769;BME280;44536;47.474;19.056;2022-09-28T12:56:17;99098.12;;;25.33;34.27
58769;BME280;44536;47.474;19.056;2022-09-28T12:59:41;99098.97;;;25.51;34.68
58769;BME280;44536;47.474;19.056;2022-09-28T13:03:00;99103.88;;;25.65;33.64
58769;BME280;44536;47.474;19.056;2022-09-28T13:06:22;99099.53;;;25.53;34.39
58769;BME280;44536;47.474;19.056;2022-09-28T13:09:26;99109.69;;;23.72;36.88
58769;BME280;44536;47.474;19.056;2022-09-28T13:12:42;99104.03;;;21.97;40.00
58769;BME280;44536;47.474;19.056;2022-09-28T13:25:17;99090.94;;;21.06;43.51
58769;BME280;44536;47.474;19.056;2022-09-28T13:28:20;99090.97;;;21.00;41.08
58769;BME280;44536;47.474;19.056;2022-09-28T13:31:27;99106.50;;;20.40;43.30
58769;BME280;44536;47.474;19.056;2022-09-28T13:34:38;99110.06;;;20.14;44.70
58769;BME280;44536;47.474;19.056;2022-09-28T13:37:40;99106.31;;;19.82;46.74
58769;BME280;44536;47.474;19.056;2022-09-28T13:47:29;99098.06;;;19.70;47.26
58769;BME280;44536;47.474;19.056;2022-09-28T13:50:50;99103.03;;;19.73;46.17
58769;BME280;44536;47.474;19.056;2022-09-28T13:54:00;99098.19;;;19.42;45.60
58769;BME280;44536;47.474;19.056;2022-09-28T13:57:19;99092.34;;;19.12;46.95
58769;BME280;44536;47.474;19.056;2022-09-28T14:00:28;99098.97;;;19.16;47.63
58769;BME280;44536;47.474;19.056;2022-09-28T14:06:53;99091.47;;;18.99;45.88
58769;BME280;44536;47.474;19.056;2022-09-28T14:13:11;99103.00;;;19.54;46.33
58769;BME280;44536;47.474;19.056;2022-09-28T14:19:22;99099.22;;;19.35;45.15
58769;BME280;44536;47.474;19.056;2022-09-28T14:25:31;99089.38;;;18.88;45.59
58769;BME280;44536;47.474;19.056;2022-09-28T14:28:44;99085.09;;;18.24;47.25
58769;BME280;44536;47.474;19.056;2022-09-28T14:31:51;99091.41;;;18.10;48.88
58769;BME280;44536;47.474;19.056;2022-09-28T14:34:54;99085.09;;;18.24;48.14
58769;BME280;44536;47.474;19.056;2022-09-28T14:37:58;99079.63;;;18.80;47.28
58769;BME280;44536;47.474;19.056;2022-09-28T14:41:27;99079.53;;;19.14;46.85
58769;BME280;44536;47.474;19.056;2022-09-28T14:44:41;99088.69;;;18.66;47.97
58769;BME280;44536;47.474;19.056;2022-09-28T14:48:10;99072.44;;;18.46;48.45
58769;BME280;44536;47.474;19.056;2022-09-28T14:54:44;99067.97;;;17.91;51.06
58769;BME280;44536;47.474;19.056;2022-09-28T14:57:52;99080.03;;;17.80;50.92
58769;BME280;44536;47.474;19.056;2022-09-28T15:01:01;99076.03;;;17.69;51.04
58769;BME280;44536;47.474;19.056;2022-09-28T15:04:05;99071.00;;;17.38;51.39
58769;BME280;44536;47.474;19.056;2022-09-28T15:07:21;99070.03;;;17.46;53.49
58769;BME280;44536;47.474;19.056;2022-09-28T15:10:30;99069.41;;;17.44;54.07
58769;BME280;44536;47.474;19.056;2022-09-28T15:13:33;99066.19;;;17.34;53.54
58769;BME280;44536;47.474;19.056;2022-09-28T15:16:35;99060.41;;;17.09;53.87
58769;BME280;44536;47.474;19.056;2022-09-28T15:22:45;99061.19;;;16.88;55.38
58769;BME280;44536;47.474;19.056;2022-09-28T15:25:51;99062.44;;;16.71;53.60
58769;BME280;44536;47.474;19.056;2022-09-28T15:28:57;99051.00;;;16.62;54.55
58769;BME280;44536;47.474;19.056;2022-09-28T15:32:23;99056.16;;;16.49;54.38
58769;BME280;44536;47.474;19.056;2022-09-28T15:35:26;99051.56;;;16.43;55.61
58769;BME280;44536;47.474;19.056;2022-09-28T15:38:28;99051.94;;;16.25;56.13
58769;BME280;44536;47.474;19.056;2022-09-28T15:41:33;99046.66;;;16.17;55.14
58769;BME280;44536;47.474;19.056;2022-09-28T15:44:37;99051.56;;;16.13;55.93
58769;BME280;44536;47.474;19.056;2022-09-28T15:47:41;99042.53;;;16.00;56.10
58769;BME280;44536;47.474;19.056;2022-09-28T15:51:27;99054.72;;;16.02;56.19
58769;BME280;44536;47.474;19.056;2022-09-28T15:57:28;99064.19;;;15.90;56.33
58769;BME280;44536;47.474;19.056;2022-09-28T16:00:32;99056.25;;;15.82;57.00
58769;BME280;44536;47.474;19.056;2022-09-28T16:03:34;99051.81;;;15.74;56.31
58769;BME280;44536;47.474;19.056;2022-09-28T16:06:36;99053.25;;;15.62;56.92
58769;BME280;44536;47.474;19.056;2022-09-28T16:09:54;99055.81;;;15.55;57.97
58769;BME280;44536;47.474;19.056;2022-09-28T16:13:05;99054.97;;;15.55;60.29
58769;BME280;44536;47.474;19.056;2022-09-28T16:16:14;99055.56;;;15.42;59.68
58769;BME280;44536;47.474;19.056;2022-09-28T16:19:21;99053.31;;;15.31;59.39
58769;BME280;44536;47.474;19.056;2022-09-28T16:22:25;99051.41;;;15.17;59.36
58769;BME280;44536;47.474;19.056;2022-09-28T16:25:30;99057.81;;;15.08;63.32
58769;BME280;44536;47.474;19.056;2022-09-28T16:31:37;99051.59;;;14.93;64.52
58769;BME280;44536;47.474;19.056;2022-09-28T16:34:42;99054.00;;;14.79;64.80
58769;BME280;44536;47.474;19.056;2022-09-28T16:37:44;99058.38;;;14.72;65.32
58769;BME280;44536;47.474;19.056;2022-09-28T16:40:49;99060.56;;;14.69;66.29
58769;BME280;44536;47.474;19.056;2022-09-28T16:44:01;99057.38;;;14.73;66.85
58769;BME280;44536;47.474;19.056;2022-09-28T16:47:03;99066.84;;;14.76;66.73
58769;BME280;44536;47.474;19.056;2022-09-28T16:50:09;99065.19;;;14.75;67.19
58769;BME280;44536;47.474;19.056;2022-09-28T16:53:14;99057.97;;;14.83;66.74
58769;BME280;44536;47.474;19.056;2022-09-28T16:56:35;99062.87;;;14.72;67.81
58769;BME280;44536;47.474;19.056;2022-09-28T16:59:38;99071.09;;;14.62;66.86
58769;BME280;44536;47.474;19.056;2022-09-28T17:02:40;99071.75;;;14.64;68.71
58769;BME280;44536;47.474;19.056;2022-09-28T17:05:48;99078.56;;;14.67;67.35
58769;BME280;44536;47.474;19.056;2022-09-28T17:08:51;99077.91;;;14.65;67.61
58769;BME280;44536;47.474;19.056;2022-09-28T17:11:53;99081.25;;;14.67;66.69
58769;BME280;44536;47.474;19.056;2022-09-28T17:14:57;99068.88;;;14.74;67.02
58769;BME280;44536;47.474;19.056;2022-09-28T17:18:01;99071.37;;;14.75;66.79
58769;BME280;44536;47.474;19.056;2022-09-28T17:21:04;99061.88;;;14.73;68.99
58769;BME280;44536;47.474;19.056;2022-09-28T17:24:07;99065.50;;;14.49;68.65
58769;BME280;44536;47.474;19.056;2022-09-28T17:27:10;99068.72;;;14.28;72.97
58769;BME280;44536;47.474;19.056;2022-09-28T17:30:17;99060.84;;;14.35;75.17
58769;BME280;44536;47.474;19.056;2022-09-28T17:33:27;99067.06;;;14.19;75.31
58769;BME280;44536;47.474;19.056;2022-09-28T17:36:30;99066.25;;;14.10;73.97
58769;BME280;44536;47.474;19.056;2022-09-28T17:39:32;99071.91;;;14.07;73.81
58769;BME280;44536;47.474;19.056;2022-09-28T17:42:34;99078.25;;;14.06;70.84
58769;BME280;44536;47.474;19.056;2022-09-28T17:45:37;99081.09;;;14.05;71.88
58769;BME280;44536;47.474;19.056;2022-09-28T17:48:43;99073.28;;;14.03;75.51
58769;BME280;44536;47.474;19.056;2022-09-28T17:51:47;99073.00;;;13.82;75.21
58769;BME280;44536;47.474;19.056;2022-09-28T17:54:52;99072.00;;;13.67;80.42
58769;BME280;44536;47.474;19.056;2022-09-28T17:57:54;99083.84;;;13.40;79.31
58769;BME280;44536;47.474;19.056;2022-09-28T18:00:57;99087.16;;;13.25;83.05
58769;BME280;44536;47.474;19.056;2022-09-28T18:04:00;99089.22;;;13.06;88.86
58769;BME280;44536;47.474;19.056;2022-09-28T18:07:02;99092.69;;;12.82;92.80
58769;BME280;44536;47.474;19.056;2022-09-28T18:10:05;99091.47;;;12.68;93.93
58769;BME280;44536;47.474;19.056;2022-09-28T18:13:07;99111.69;;;12.53;99.74
58769;BME280;44536;47.474;19.056;2022-09-28T18:16:10;99101.34;;;12.50;100.00
58769;BME280;44536;47.474;19.056;2022-09-28T18:19:12;99099.69;;;12.49;100.00
58769;BME280;44536;47.474;19.056;2022-09-28T18:22:14;99095.03;;;12.43;100.00
58769;BME280;44536;47.474;19.056;2022-09-28T18:25:17;99100.03;;;12.46;100.00